Weather observations for the past three days for
Hulett Municipal Airport
Imperial (Metric)
Date Time (mdt) Wind (mph) Vis. (mi.) Weather Sky Cond. Temperature (ºF) Relative Humidity Wind Chill (°F) Heat Index (°F) Pressure Precipitation (in)
Air Dwpt 6 hour altimeter (in) sea level (mb) 1 hr 3 hr 6 hr
Max. Min.
02 16:15 NW 18 G 23 10.00 Partly Cloudy SCT100 71.6 28.4 20% 29.99 0.0
02 15:55 N 21 G 28 10.00 Partly Cloudy and Breezy SCT100 69.8 28.4 21% 29.99 0.0
02 15:35 N 17 G 22 10.00 Mostly Cloudy BKN100 71.6 26.6 19% 29.99 0.0
02 15:15 NW 17 G 23 10.00 Partly Cloudy SCT100 69.8 28.4 21% 30 0.0
02 14:55 NW 12 G 24 10.00 Partly Cloudy SCT110 71.6 26.6 19% 30.01 0.0
02 14:35 NW 14 G 28 10.00 Mostly Cloudy BKN110 69.8 24.8 18% 30 0.0
02 14:15 NW 12 G 20 10.00 Mostly Cloudy BKN110 69.8 26.6 20% 30 0.0
02 13:55 NW 16 G 22 10.00 Partly Cloudy SCT100 71.6 24.8 17% 30.01 0.0
02 13:35 NW 17 G 26 10.00 Partly Cloudy SCT110 71.6 24.8 17% 30.01 0.0
02 13:15 NW 13 G 25 10.00 Partly Cloudy SCT110 71.6 23 16% 30.01 0.0
02 12:55 W 15 G 22 10.00 Fair CLR 71.6 26.6 19% 30.01 0.0
02 12:35 W 9 G 23 10.00 Fair CLR 69.8 23 17% 30.02 0.0
02 12:15 SW 5 10.00 Fair CLR 69.8 24.8 18% 30.03 0.0
02 11:55 W 8 G 16 10.00 Fair CLR 69.8 24.8 18% 30.03 0.0
02 11:35 W 8 10.00 Fair CLR 68 23 18% 30.04 0.0
02 11:15 SW 13 G 16 10.00 Fair CLR 66.2 24.8 21% 30.05 0.0
02 10:55 W 10 G 16 10.00 Fair CLR 64.4 23 21% 30.04 0.0
02 10:35 Calm 10.00 Fair CLR 64.4 26.6 24% 30.05 0.0
02 10:15 SW 12 10.00 Fair CLR 62.6 26.6 25% 30.05 0.0
02 09:55 SW 14 G 17 10.00 Fair CLR 60.8 28.4 29% 30.06 0.0
02 09:35 SW 14 10.00 Fair CLR 59 28.4 31% 30.06 0.0
02 09:15 SW 15 10.00 Fair CLR 57.2 28.4 33% 30.07 0.0
02 08:55 SW 15 10.00 Fair CLR 57.2 28.4 33% 30.07 0.0
02 08:35 SW 14 G 18 10.00 Fair CLR 55.4 26.6 33% 30.07 0.0
02 08:15 SW 12 10.00 Fair CLR 53.6 26.6 35% 30.07 0.0
02 07:55 SW 12 10.00 Fair CLR 51.8 26.6 38% 30.08 0.0
02 07:35 SW 10 10.00 Fair CLR 50 26.6 40% 46 30.08 0.0
02 07:15 SW 10 10.00 Fair CLR 50 26.6 40% 46 30.08 0.0
02 06:55 SW 10 10.00 Fair CLR 46.4 26.6 46% 42 30.08 0.0
02 06:35 SW 10 10.00 Fair CLR 44.6 26.6 49% 40 30.08 0.0
02 06:15 SW 12 G 17 10.00 Fair CLR 44.6 26.6 49% 39 30.08 0.0
02 05:55 SW 13 10.00 Fair CLR 44.6 26.6 49% 39 30.08 0.0
02 05:35 SW 9 10.00 Fair CLR 44.6 24.8 46% 40 30.08 0.0
02 05:15 SW 12 10.00 Fair CLR 44.6 24.8 46% 39 30.08 0.0
02 04:55 SW 9 10.00 Fair CLR 44.6 24.8 46% 40 30.09 0.0
02 04:35 SW 13 10.00 Fair CLR 44.6 23 43% 39 30.09 0.0
02 04:15 SW 13 10.00 Fair CLR 44.6 23 43% 39 30.1 0.0
02 03:55 SW 8 10.00 Fair CLR 44.6 23 43% 41 30.1 0.0
02 03:35 SW 8 10.00 Fair CLR 44.6 23 43% 41 30.1 0.0
02 03:15 SW 9 10.00 Fair CLR 44.6 23 43% 40 30.1 0.0
02 02:55 S 15 G 20 10.00 Fair CLR 44.6 23 43% 38 30.11 0.0
02 02:35 SW 10 10.00 Fair CLR 42.8 23 46% 38 30.12 0.0
02 02:15 SW 13 10.00 Fair CLR 44.6 23 43% 39 30.12 0.0
02 01:55 SW 14 10.00 Fair CLR 44.6 23 43% 39 30.12 0.0
02 01:35 S 10 10.00 Fair CLR 42.8 26.6 53% 38 30.12 0.0
02 01:15 SW 9 10.00 Fair CLR 44.6 26.6 49% 40 30.13 0.0
02 00:55 SW 10 10.00 Fair CLR 42.8 26.6 53% 38 30.13 0.0
02 00:35 SW 8 10.00 Fair CLR 37.4 26.6 65% 32 30.13 0.0
02 00:15 SW 8 10.00 Fair CLR 35.6 26.6 70% 30 30.13 0.0
01 23:55 SW 8 10.00 Fair CLR 33.8 26.6 75% 28 30.13 0.0
01 23:35 S 9 10.00 Fair CLR 35.6 26.6 70% 29 30.13 0.0
01 23:15 S 7 10.00 Fair CLR 41 26.6 57% 37 30.13 0.0
01 22:55 S 8 10.00 Fair CLR 41 26.6 57% 36 30.13 0.0
01 22:35 SE 10 10.00 Fair CLR 41 26.6 57% 35 30.13 0.0
01 22:15 SE 3 10.00 Fair CLR 42.8 24.8 49% 30.14 0.0
01 21:55 E 5 10.00 Fair CLR 42.8 26.6 53% 41 30.14 0.0
01 21:35 SE 9 10.00 Fair CLR 44.6 26.6 49% 40 30.13 0.0
01 21:15 SE 9 10.00 Fair CLR 42.8 26.6 53% 38 30.13 0.0
01 20:55 SE 8 10.00 Fair CLR 42.8 26.6 53% 39 30.13 0.0
01 20:35 SE 9 10.00 Fair CLR 42.8 26.6 53% 38 30.12 0.0
01 20:15 E 3 10.00 Fair CLR 48.2 26.6 43% 30.12 0.0
01 19:55 E 5 10.00 Fair CLR 51.8 26.6 38% 30.12 0.0
01 19:35 NE 3 10.00 Fair CLR 53.6 24.8 33% 30.11 0.0
01 19:15 NE 3 10.00 Fair CLR 55.4 24.8 31% 30.11 0.0
01 18:55 NE 5 10.00 Fair CLR 57.2 26.6 31% 30.11 0.0
01 18:35 E 5 10.00 Fair CLR 59 24.8 27% 30.11 0.0
01 17:55 Calm 10.00 Fair CLR 59 24.8 27% 30.11 0.0
01 17:35 NE 3 10.00 Fair CLR 59 26.6 29% 30.11 0.0
01 17:15 E 7 10.00 Fair CLR 60.8 26.6 27% 30.1 0.0
01 16:55 NE 8 10.00 Fair CLR 60.8 26.6 27% 30.1 0.0
01 16:35 N 9 10.00 Fair CLR 60.8 26.6 27% 30.09 0.0
01 16:15 Calm 10.00 Fair CLR 60.8 24.8 25% 30.1 0.0
01 15:55 N 10 G 16 10.00 Fair CLR 60.8 26.6 27% 30.1 0.0
01 15:35 N 6 10.00 Fair CLR 60.8 26.6 27% 30.1 0.0
01 15:15 N 8 10.00 Fair CLR 60.8 26.6 27% 30.1 0.0
01 14:55 NE 14 G 20 10.00 Fair CLR 60.8 26.6 27% 30.1 0.0
01 14:35 NE 15 10.00 Fair CLR 60.8 28.4 29% 30.11 0.0
01 14:15 N 12 G 18 10.00 Partly Cloudy SCT070 60.8 28.4 29% 30.11 0.0
01 13:55 N 9 G 20 10.00 Partly Cloudy SCT070 60.8 26.6 27% 30.11 0.0
01 13:35 NW 14 G 18 10.00 Partly Cloudy SCT070 60.8 28.4 29% 30.11 0.0
01 13:15 N 10 G 18 10.00 Partly Cloudy SCT070 59 26.6 29% 30.11 0.0
01 12:55 N 13 G 20 10.00 Fair CLR 59 28.4 31% 30.11 0.0
01 12:35 N 14 G 20 10.00 Partly Cloudy SCT120 59 28.4 31% 30.11 0.0
01 12:15 N 13 G 18 10.00 Partly Cloudy SCT120 59 28.4 31% 30.11 0.0
01 11:55 N 5 G 18 10.00 Fair CLR 59 26.6 29% 30.11 0.0
01 11:35 NW 9 10.00 Partly Cloudy SCT070 59 24.8 27% 30.11 0.0
01 11:15 N 13 G 20 10.00 Partly Cloudy SCT070 59 26.6 29% 30.11 0.0
01 10:55 W 10 10.00 Fair CLR 55.4 26.6 33% 30.11 0.0
01 10:35 NW 7 10.00 Partly Cloudy SCT075 55.4 24.8 31% 30.11 0.0
01 10:15 NW 13 G 16 10.00 Partly Cloudy SCT075 55.4 23 28% 30.11 0.0
01 09:55 SW 5 10.00 Fair CLR 53.6 26.6 35% 30.11 0.0
01 09:35 SW 6 10.00 Fair CLR 51.8 26.6 38% 30.11 0.0
01 09:15 SW 7 10.00 Fair CLR 51.8 26.6 38% 30.12 0.0
01 08:55 W 8 10.00 Fair CLR 50 26.6 40% 47 30.11 0.0
01 08:35 W 7 10.00 Fair CLR 46.4 26.6 46% 43 30.11 0.0
01 08:15 SW 8 10.00 Fair CLR 46.4 26.6 46% 43 30.11 0.0
01 07:55 SW 7 10.00 Fair CLR 44.6 26.6 49% 41 30.11 0.0
01 07:35 SW 8 10.00 Fair CLR 44.6 26.6 49% 41 30.11 0.0
01 07:15 SW 9 10.00 Fair CLR 42.8 26.6 53% 38 30.11 0.0
01 06:55 SW 8 10.00 Fair CLR 41 24.8 53% 36 30.1 0.0
01 06:35 SW 7 10.00 Fair CLR 37.4 24.8 60% 33 30.1 0.0
01 06:15 SW 7 10.00 Fair CLR 33.8 23 65% 28 30.1 0.0
01 05:55 SW 8 10.00 Fair CLR 32 23 69% 25 30.1 0.0
01 05:35 SW 8 10.00 Fair CLR 33.8 23 65% 28 30.1 0.0
01 05:15 SW 9 10.00 Fair CLR 35.6 23 60% 29 30.1 0.0
01 04:55 SW 8 10.00 Fair CLR 33.8 23 65% 28 30.1 0.0
01 04:35 SW 8 10.00 Fair CLR 35.6 23 60% 30 30.1 0.0
01 04:15 SW 7 10.00 Fair CLR 37.4 23 56% 33 30.1 0.0
01 03:55 SW 6 10.00 Fair CLR 37.4 23 56% 33 30.11 0.0
01 03:35 SW 8 10.00 Fair CLR 35.6 23 60% 30 30.11 0.0
01 03:15 SW 8 10.00 Fair CLR 35.6 23 60% 30 30.11 0.0
01 02:55 SW 7 10.00 Fair CLR 35.6 23 60% 31 30.11 0.0
01 02:35 SW 8 10.00 Fair CLR 32 23 69% 25 30.12 0.0
01 02:15 S 8 10.00 Fair CLR 32 23 69% 25 30.12 0.0
01 01:55 S 9 10.00 Fair CLR 30.2 21.2 69% 23 30.12 0.0
01 01:35 S 9 10.00 Fair CLR 30.2 21.2 69% 23 30.12 0.0
01 01:15 S 9 10.00 Fair CLR 30.2 21.2 69% 23 30.13 0.0
01 00:55 S 9 10.00 Fair CLR 32 21.2 64% 25 30.14 0.0
01 00:35 S 8 10.00 Fair CLR 30.2 23 75% 23 30.14 0.0
01 00:15 S 8 10.00 Fair CLR 32 23 69% 25 30.14 0.0
30 23:55 S 8 10.00 Fair CLR 32 23 69% 25 30.15 0.0
30 23:35 S 8 10.00 Fair CLR 33.8 23 65% 28 30.15 0.0
30 23:15 S 5 10.00 Fair CLR 33.8 23 65% 30 30.14 0.0
30 22:55 Calm 10.00 Fair CLR 33.8 23 65% 30.15 0.0
30 22:35 Calm 10.00 Fair CLR 37.4 23 56% 30.15 0.0
30 22:15 Calm 10.00 Fair CLR 41 21.2 45% 30.15 0.0
30 21:55 Calm 10.00 Fair CLR 44.6 19.4 37% 30.14 0.0
30 21:35 Calm 10.00 Fair CLR 42.8 19.4 39% 30.14 0.0
30 21:15 Calm 10.00 Partly Cloudy SCT070 42.8 21.2 42% 30.14 0.0
30 20:55 N 3 10.00 Partly Cloudy SCT070 44.6 21.2 39% 30.14 0.0
30 20:35 N 3 10.00 Fair CLR 46.4 21.2 37% 30.13 0.0
30 20:15 N 6 10.00 Partly Cloudy SCT070 44.6 21.2 39% 42 30.13 0.0
30 19:55 N 5 10.00 Mostly Cloudy BKN070 46.4 21.2 37% 45 30.12 0.0
30 19:35 N 8 10.00 Fair CLR 48.2 21.2 34% 45 30.12 0.0
30 19:15 N 14 10.00 Fair CLR 50 21.2 32% 45 30.12 0.0
30 18:55 N 8 10.00 Partly Cloudy SCT070 51.8 21.2 30% 30.12 0.0
30 18:35 NW 10 10.00 Partly Cloudy SCT070 51.8 23 32% 30.12 0.0
30 18:15 N 7 G 12 10.00 Mostly Cloudy BKN070 BKN080 51.8 21.2 30% 30.12 0.0
30 17:55 NW 8 10.00 Partly Cloudy SCT080 53.6 21.2 28% 30.12 0.0
30 17:35 NW 13 10.00 Partly Cloudy SCT070 53.6 23 30% 30.12 0.0
30 17:15 N 12 G 17 10.00 Mostly Cloudy BKN070 BKN080 51.8 23 32% 30.12 0.0
30 16:55 N 9 G 16 10.00 Mostly Cloudy BKN075 55.4 23 28% 30.12 0.0
30 16:35 NW 10 10.00 Mostly Cloudy BKN075 55.4 23 28% 30.12 0.0
30 16:15 N 15 G 18 10.00 Mostly Cloudy BKN075 BKN085 53.6 21.2 28% 30.12 0.0
30 15:55 N 6 10.00 Mostly Cloudy BKN075 BKN085 51.8 21.2 30% 30.12 0.0
30 15:35 Calm 10.00 Mostly Cloudy BKN075 53.6 21.2 28% 30.13 0.0
30 15:15 NW 14 G 18 10.00 Mostly Cloudy BKN075 55.4 23 28% 30.13 0.0
30 14:55 NW 8 G 18 10.00 Partly Cloudy SCT065 51.8 21.2 30% 30.14 0.0
30 14:35 N 9 G 13 10.00 Mostly Cloudy BKN065 BKN080 51.8 21.2 30% 30.14 0.0
30 14:15 N 9 10.00 Mostly Cloudy BKN065 50 23 35% 47 30.14 0.0
30 13:55 NW 7 10.00 Mostly Cloudy SCT065 BKN075 50 23 35% 48 30.15 0.0
30 13:35 W 9 10.00 Mostly Cloudy SCT065 BKN075 51.8 23 32% 30.15 0.0
30 13:15 N 7 10.00 Mostly Cloudy BKN065 BKN075 50 21.2 32% 48 30.15 0.0
30 12:55 NW 14 G 20 10.00 Mostly Cloudy SCT065 BKN075 51.8 21.2 30% 30.16 0.0
30 12:35 N 8 10.00 Mostly Cloudy BKN065 BKN075 50 21.2 32% 47 30.16 0.0
30 12:15 N 8 10.00 Mostly Cloudy SCT070 BKN075 51.8 23 32% 30.17 0.0
30 11:55 NW 8 10.00 Mostly Cloudy BKN065 BKN070 50 23 35% 47 30.17 0.0
30 11:35 Calm 10.00 Partly Cloudy SCT060 SCT080 50 23 35% 30.17 0.0
30 11:15 N 10 G 16 10.00 Partly Cloudy SCT070 SCT080 50 23 35% 46 30.17 0.0
30 10:55 NW 14 G 17 10.00 Partly Cloudy SCT080 48.2 21.2 34% 43 30.18 0.0
30 10:35 Calm 10.00 Mostly Cloudy SCT060 BKN080 46.4 21.2 37% 30.18 0.0
30 10:15 N 6 10.00 Partly Cloudy SCT060 SCT080 48.2 23 37% 46 30.18 0.0
30 09:55 N 5 10.00 Partly Cloudy SCT060 SCT080 46.4 21.2 37% 45 30.19 0.0
30 09:35 W 5 10.00 Mostly Cloudy BKN080 44.6 23 43% 43 30.2 0.0
30 09:15 W 3 10.00 Partly Cloudy SCT080 44.6 23 43% 30.2 0.0
30 08:55 W 6 10.00 Fair CLR 42.8 23 46% 40 30.21 0.0
30 08:35 Calm 10.00 Fair CLR 41 23 49% 30.21 0.0
30 08:15 W 5 10.00 Fair CLR 41 23 49% 38 30.2 0.0
30 07:55 SW 8 10.00 Fair CLR 37.4 23 56% 32 30.21 0.0
30 07:35 SW 7 10.00 Fair CLR 35.6 24.8 65% 31 30.2 0.0
30 07:15 Calm 10.00 Fair CLR 32 23 69% 30.2 0.0
30 06:55 SW 6 10.00 Fair CLR 30.2 23 75% 25 30.19 0.0
30 06:35 SW 5 10.00 Fair CLR 26.6 21.2 80% 22 30.19 0.0
30 06:15 S 9 10.00 Fair CLR 26.6 19.4 74% 18 30.19 0.0
30 05:55 S 9 10.00 Fair CLR 24.8 19.4 80% 16 30.19 0.0
30 05:35 S 8 10.00 Fair CLR 24.8 19.4 80% 17 30.19 0.0
30 05:15 S 7 10.00 Fair CLR 26.6 19.4 74% 20 30.19 0.0
30 04:55 SW 7 10.00 Fair CLR 26.6 21.2 80% 20 30.19 0.0
30 04:35 S 8 10.00 Fair CLR 24.8 19.4 80% 17 30.19 0.0
30 04:15 S 8 10.00 Fair CLR 26.6 19.4 74% 19 30.19 0.0
30 03:55 S 8 10.00 Fair CLR 26.6 21.2 80% 19 30.19 0.0
30 03:35 S 7 10.00 Fair CLR 26.6 21.2 80% 20 30.2 0.0
30 03:15 S 3 10.00 Fair CLR 30.2 21.2 69% 30.2 0.0
30 02:55 Calm 10.00 Fair CLR 32 21.2 64% 30.2 0.0
30 02:35 Calm 10.00 Fair CLR 32 23 69% 30.21 0.0
30 02:15 Calm 10.00 Fair CLR 32 23 69% 30.21 0.0
30 01:55 Calm 10.00 Partly Cloudy SCT065 33.8 23 65% 30.21 0.0
30 01:35 Calm 10.00 Mostly Cloudy BKN065 33.8 23 65% 30.21 0.0
30 01:15 Calm 10.00 Overcast OVC065 33.8 24.8 70% 30.21 0.0
30 00:55 Calm 10.00 Overcast OVC065 33.8 23 65% 30.21 0.0
30 00:35 Calm 10.00 Overcast OVC065 33.8 24.8 70% 30.22 0.0
30 00:15 SE 5 10.00 Mostly Cloudy BKN065 32 23 69% 28 30.21 0.0
29 23:55 SE 7 10.00 Fair CLR 32 21.2 64% 26 30.21 0.0
29 23:35 E 3 10.00 Fair CLR 33.8 23 65% 30.21 0.0
29 23:15 E 3 10.00 Partly Cloudy SCT065 35.6 23 60% 30.22 0.0
29 22:55 NE 3 10.00 Partly Cloudy SCT065 35.6 23 60% 30.22 0.0
29 22:35 NE 3 10.00 Partly Cloudy SCT065 37.4 23 56% 30.22 0.0
29 22:15 N 5 10.00 Fair CLR 37.4 23 56% 34 30.21 0.0
29 21:55 N 6 10.00 Fair CLR 37.4 23 56% 33 30.21 0.0
29 21:35 N 5 10.00 Fair CLR 37.4 23 56% 34 30.21 0.0
29 21:15 N 6 10.00 Fair CLR 39.2 23 52% 36 30.2 0.0
29 20:55 N 7 10.00 Fair CLR 39.2 23 52% 35 30.18 0.0
29 20:35 N 6 10.00 Fair CLR 41 24.8 53% 38 30.17 0.0
29 20:15 N 8 10.00 Partly Cloudy SCT065 41 23 49% 36 30.16 0.0
29 19:55 N 8 G 16 10.00 Partly Cloudy SCT065 44.6 23 43% 41 30.16 0.0
29 19:35 N 9 10.00 Partly Cloudy SCT065 46.4 23 40% 42 30.15 0.0
29 19:15 N 10 10.00 Partly Cloudy SCT065 46.4 23 40% 42 30.14 0.0
29 18:55 N 13 G 17 10.00 Partly Cloudy SCT065 48.2 21.2 34% 43 30.14 0.0
29 18:35 N 15 G 21 10.00 Partly Cloudy SCT065 50 21.2 32% 45 30.13 0.0
29 18:15 N 13 G 20 10.00 Partly Cloudy SCT065 50 23 35% 46 30.13 0.0
29 17:55 N 14 G 21 10.00 Mostly Cloudy BKN065 50 23 35% 45 30.13 0.0
29 17:35 N 14 G 22 10.00 Overcast OVC075 50 23 35% 45 30.13 0.0
29 17:15 N 18 G 24 10.00 Mostly Cloudy BKN070 51.8 23 32% 30.12 0.0
29 16:55 N 16 G 22 10.00 Mostly Cloudy BKN070 51.8 24.8 35% 30.12 0.0
29 16:35 N 16 G 23 10.00 Partly Cloudy SCT060 SCT070 51.8 26.6 38% 30.11 0.0
Date Time (mdt) Wind (mph) Vis. (mi.) Weather Sky Cond. Air Dwpt Max. Min. Relative Humidity Wind Chill (°F) Heat Index (°F) altimeter (in) sea level (mb) 1 hr 3 hr 6 hr
6 hour
Temperature (ºF) Pressure Precipitation (in)